createdAt,value
2023-05-07T00:01:23.629Z,1.63
2023-05-07T00:03:50.480Z,1.80
2023-05-07T00:06:17.516Z,1.30
2023-05-07T00:08:44.235Z,1.60
2023-05-07T00:11:10.898Z,1.37
2023-05-07T00:13:37.535Z,1.37
2023-05-07T00:16:04.905Z,1.47
2023-05-07T00:18:31.616Z,1.63
2023-05-07T00:20:58.309Z,1.77
2023-05-07T00:23:25.032Z,1.50
2023-05-07T00:25:51.702Z,1.50
2023-05-07T00:28:18.351Z,1.63
2023-05-07T00:30:45.011Z,1.67
2023-05-07T00:33:11.795Z,1.67
2023-05-07T00:35:38.415Z,1.47
2023-05-07T00:38:05.293Z,1.40
2023-05-07T00:40:31.998Z,1.40
2023-05-07T00:42:59.258Z,1.60
2023-05-07T00:45:28.939Z,1.77
2023-05-07T00:47:58.335Z,1.60
2023-05-07T00:50:25.236Z,1.50
2023-05-07T00:52:51.949Z,1.37
2023-05-07T00:55:18.998Z,1.27
2023-05-07T00:57:48.839Z,1.73
2023-05-07T01:00:16.755Z,1.57
2023-05-07T01:02:43.585Z,1.50
2023-05-07T01:05:16.861Z,1.40
2023-05-07T01:07:44.473Z,1.50
2023-05-07T01:10:12.374Z,1.50
2023-05-07T01:12:41.666Z,1.50
2023-05-07T01:15:10.319Z,1.43
2023-05-07T01:17:39.232Z,1.60
2023-05-07T01:20:09.344Z,1.40
2023-05-07T01:22:38.613Z,1.70
2023-05-07T01:25:08.359Z,1.30
2023-05-07T01:27:39.840Z,1.60
2023-05-07T01:30:07.382Z,1.30
2023-05-07T01:32:38.979Z,1.43
2023-05-07T01:35:08.471Z,1.60
2023-05-07T01:37:35.201Z,1.53
2023-05-07T01:40:03.364Z,1.50
2023-05-07T01:42:30.806Z,1.67
2023-05-07T01:44:57.566Z,1.50
2023-05-07T01:47:25.447Z,1.77
2023-05-07T01:49:52.262Z,1.77
2023-05-07T01:52:19.014Z,1.63
2023-05-07T01:54:48.961Z,1.40
2023-05-07T01:57:15.661Z,1.60
2023-05-07T01:59:42.439Z,1.63
2023-05-07T02:02:09.337Z,1.70
2023-05-07T02:04:38.251Z,1.70
2023-05-07T02:07:05.298Z,1.63
2023-05-07T02:09:31.917Z,1.60
2023-05-07T02:11:58.974Z,1.60
2023-05-07T02:14:26.976Z,1.70
2023-05-07T02:16:53.707Z,1.67
2023-05-07T02:19:22.082Z,1.73
2023-05-07T02:21:49.228Z,1.80
2023-05-07T02:24:15.984Z,1.50
2023-05-07T02:26:42.752Z,1.60
2023-05-07T02:29:09.464Z,1.97
2023-05-07T02:31:38.548Z,2.10
2023-05-07T02:34:05.317Z,1.90
2023-05-07T02:36:31.960Z,1.90
2023-05-07T02:39:06.447Z,2.03
2023-05-07T02:41:33.232Z,1.93
2023-05-07T02:43:59.877Z,2.03
2023-05-07T02:46:27.212Z,1.70
2023-05-07T02:49:00.705Z,2.20
2023-05-07T02:51:28.011Z,2.07
2023-05-07T02:53:57.250Z,2.03
2023-05-07T02:56:24.077Z,1.77
2023-05-07T02:58:50.714Z,2.10
2023-05-07T03:01:19.002Z,2.03
2023-05-07T03:03:52.193Z,2.30
2023-05-07T03:06:18.924Z,2.10
2023-05-07T03:08:45.550Z,2.10
2023-05-07T03:11:12.356Z,2.90
2023-05-07T03:13:39.008Z,2.67
2023-05-07T03:16:06.308Z,2.13
2023-05-07T03:18:33.002Z,2.23
2023-05-07T03:20:59.771Z,2.27
2023-05-07T03:23:26.515Z,2.20
2023-05-07T03:25:53.233Z,2.07
2023-05-07T03:28:19.963Z,1.97
2023-05-07T03:30:54.895Z,2.20
2023-05-07T03:33:22.100Z,2.20
2023-05-07T03:35:49.174Z,2.10
2023-05-07T03:38:20.503Z,2.00
2023-05-07T03:40:47.302Z,1.80
2023-05-07T03:43:14.076Z,1.83
2023-05-07T03:45:45.611Z,1.90
2023-05-07T03:48:16.478Z,2.40
2023-05-07T03:50:43.676Z,1.97
2023-05-07T03:53:10.570Z,3.40
2023-05-07T03:55:39.768Z,3.00
2023-05-07T03:58:06.682Z,2.70
2023-05-07T04:00:38.062Z,2.30
2023-05-07T04:03:10.631Z,2.33
2023-05-07T04:05:37.318Z,2.23
2023-05-07T04:08:04.212Z,2.20
2023-05-07T04:10:37.893Z,2.37
2023-05-07T04:13:08.844Z,2.17
2023-05-07T04:15:36.832Z,2.20
2023-05-07T04:18:05.753Z,2.50
2023-05-07T04:20:35.738Z,2.23
2023-05-07T04:23:03.424Z,1.90
2023-05-07T04:25:30.677Z,1.90
2023-05-07T04:28:08.036Z,2.17
2023-05-07T04:30:34.787Z,2.43
2023-05-07T04:33:03.808Z,2.40
2023-05-07T04:35:32.019Z,2.60
2023-05-07T04:37:59.359Z,2.70
2023-05-07T04:40:26.228Z,2.50
2023-05-07T04:42:54.043Z,2.33
2023-05-07T04:45:22.055Z,2.53
2023-05-07T04:47:48.785Z,1.93
2023-05-07T04:50:15.521Z,2.20
2023-05-07T04:52:43.507Z,2.10
2023-05-07T04:55:10.429Z,2.00
2023-05-07T04:57:41.552Z,1.97
2023-05-07T05:00:10.485Z,2.20
2023-05-07T05:02:39.119Z,2.20
2023-05-07T05:05:06.553Z,2.10
2023-05-07T05:07:33.293Z,2.07
2023-05-07T05:10:00.676Z,2.30
2023-05-07T05:12:27.539Z,2.40
2023-05-07T05:14:54.509Z,2.03
2023-05-07T05:17:21.931Z,2.03
2023-05-07T05:19:48.623Z,2.03
2023-05-07T05:22:15.380Z,2.30
2023-05-07T05:24:42.050Z,2.10
2023-05-07T05:27:09.193Z,2.27
2023-05-07T05:29:35.826Z,2.20
2023-05-07T05:32:02.675Z,2.20
2023-05-07T05:34:31.267Z,2.07
2023-05-07T05:37:00.030Z,2.20
2023-05-07T05:39:26.654Z,2.27
2023-05-07T05:41:53.256Z,2.40
2023-05-07T05:44:20.947Z,1.80
2023-05-07T05:46:47.846Z,2.40
2023-05-07T05:49:14.579Z,2.13
2023-05-07T05:51:41.260Z,1.90
2023-05-07T05:54:08.154Z,2.07
2023-05-07T05:56:34.901Z,2.03
2023-05-07T05:59:02.363Z,1.90
2023-05-07T06:01:29.504Z,1.90
2023-05-07T06:03:58.561Z,2.20
2023-05-07T06:06:25.287Z,1.80
2023-05-07T06:08:52.374Z,1.83
2023-05-07T06:11:24.875Z,2.10
2023-05-07T06:13:51.639Z,2.00
2023-05-07T06:16:18.307Z,1.87
2023-05-07T06:18:47.457Z,2.00
2023-05-07T06:21:16.166Z,1.50
2023-05-07T06:23:42.964Z,1.80
2023-05-07T06:26:10.257Z,2.17
2023-05-07T06:28:41.095Z,2.07
2023-05-07T06:31:21.330Z,1.63
2023-05-07T06:33:56.529Z,2.10
2023-05-07T06:36:27.333Z,1.77
2023-05-07T06:38:56.925Z,2.00
2023-05-07T06:41:23.723Z,2.10
2023-05-07T06:43:50.611Z,2.60
2023-05-07T06:46:35.765Z,1.93
2023-05-07T06:49:04.250Z,1.90
2023-05-07T06:51:31.583Z,1.97
2023-05-07T06:54:02.692Z,1.70
2023-05-07T06:56:30.241Z,2.30
2023-05-07T06:58:57.015Z,1.60
2023-05-07T07:01:24.185Z,1.93
2023-05-07T07:03:52.160Z,1.90
2023-05-07T07:06:20.969Z,2.03
2023-05-07T07:08:47.665Z,2.03
2023-05-07T07:11:16.687Z,2.00
2023-05-07T07:13:44.165Z,1.87
2023-05-07T07:16:11.396Z,2.00
2023-05-07T07:18:38.829Z,2.07
2023-05-07T07:21:05.596Z,2.07
2023-05-07T07:23:32.233Z,1.80
2023-05-07T07:25:59.672Z,2.30
2023-05-07T07:28:27.376Z,2.10
2023-05-07T07:30:54.133Z,2.00
2023-05-07T07:33:20.923Z,1.70
2023-05-07T07:35:47.596Z,1.90
2023-05-07T07:38:14.265Z,1.90
2023-05-07T07:40:41.341Z,1.87
2023-05-07T07:43:08.810Z,2.07
2023-05-07T07:45:35.828Z,1.63
2023-05-07T07:48:02.830Z,1.80
2023-05-07T07:50:43.579Z,1.80
2023-05-07T07:53:13.063Z,1.80
2023-05-07T07:55:41.004Z,2.10
2023-05-07T07:58:08.870Z,1.87
2023-05-07T08:00:35.560Z,1.90
2023-05-07T08:03:04.228Z,1.83
2023-05-07T08:05:34.989Z,2.07
2023-05-07T08:08:02.430Z,2.10
2023-05-07T08:10:35.623Z,1.97
2023-05-07T08:13:08.018Z,1.87
2023-05-07T08:15:36.548Z,1.60
2023-05-07T08:18:03.978Z,2.50
2023-05-07T08:20:31.185Z,1.90
2023-05-07T08:22:58.593Z,2.10
2023-05-07T08:25:26.637Z,1.40
2023-05-07T08:27:53.614Z,2.00
2023-05-07T08:30:20.507Z,1.50
2023-05-07T08:32:47.414Z,1.57
2023-05-07T08:35:14.143Z,1.60
2023-05-07T08:37:40.892Z,1.70
2023-05-07T08:40:10.223Z,1.63
2023-05-07T08:42:40.959Z,1.50
2023-05-07T08:45:12.075Z,1.60
2023-05-07T08:47:48.279Z,1.30
2023-05-07T08:50:18.241Z,1.60
2023-05-07T08:52:46.029Z,3.43
2023-05-07T08:55:13.970Z,2.00
2023-05-07T08:57:40.844Z,1.53
2023-05-07T09:00:09.898Z,1.60
2023-05-07T09:02:38.453Z,1.37
2023-05-07T09:05:07.244Z,1.67
2023-05-07T09:07:35.009Z,1.30
2023-05-07T09:10:05.196Z,1.33
2023-05-07T09:12:33.621Z,1.53
2023-05-07T09:15:01.005Z,1.47
2023-05-07T09:17:29.596Z,1.30
2023-05-07T09:19:56.379Z,1.42
2023-05-07T09:22:23.073Z,1.40
2023-05-07T09:25:01.015Z,1.13
2023-05-07T09:27:28.656Z,1.30
2023-05-07T09:29:57.069Z,1.27
2023-05-07T09:32:23.899Z,1.40
2023-05-07T09:34:50.589Z,1.10
2023-05-07T09:37:20.617Z,1.30
2023-05-07T09:39:50.385Z,1.40
2023-05-07T09:42:25.721Z,2.00
2023-05-07T09:44:53.892Z,1.35
2023-05-07T09:47:25.740Z,1.20
2023-05-07T09:49:58.748Z,1.30
2023-05-07T09:52:29.512Z,1.50
2023-05-07T09:55:00.265Z,1.30
2023-05-07T09:57:30.116Z,1.30
2023-05-07T10:00:05.152Z,1.33
2023-05-07T10:02:37.284Z,1.50
2023-05-07T10:05:05.357Z,1.45
2023-05-07T10:07:34.486Z,1.58
2023-05-07T10:10:07.430Z,1.50
2023-05-07T10:12:40.203Z,1.40
2023-05-07T10:15:13.774Z,1.40
2023-05-07T10:17:43.122Z,1.30
2023-05-07T10:20:11.870Z,2.30
2023-05-07T10:22:48.501Z,1.80
2023-05-07T10:25:31.075Z,1.38
2023-05-07T10:28:07.521Z,1.13
2023-05-07T10:30:43.515Z,1.42
2023-05-07T10:33:13.060Z,1.85
2023-05-07T10:35:44.821Z,1.80
2023-05-07T10:38:12.016Z,1.70
2023-05-07T10:40:41.698Z,1.48
2023-05-07T10:43:10.904Z,1.23
2023-05-07T10:46:18.898Z,1.38
2023-05-07T10:49:02.877Z,1.70
2023-05-07T10:51:39.813Z,2.00
2023-05-07T10:54:28.580Z,1.35
2023-05-07T10:57:35.157Z,1.50
2023-05-07T11:00:38.082Z,1.55
2023-05-07T11:03:08.877Z,1.40
2023-05-07T11:05:48.353Z,1.52
2023-05-07T11:08:25.484Z,1.90
2023-05-07T11:11:06.002Z,1.50
2023-05-07T11:13:48.909Z,1.60
2023-05-07T11:16:37.664Z,1.52
2023-05-07T11:19:18.652Z,1.48
2023-05-07T11:21:49.592Z,1.70
2023-05-07T11:24:41.422Z,1.67
2023-05-07T11:27:09.350Z,1.65
2023-05-07T11:29:36.838Z,1.65
2023-05-07T11:32:08.161Z,1.70
2023-05-07T11:34:42.005Z,1.75
2023-05-07T11:37:10.306Z,1.60
2023-05-07T11:39:49.478Z,1.50
2023-05-07T11:42:34.774Z,1.70
2023-05-07T11:45:02.307Z,1.70
2023-05-07T11:47:31.664Z,1.65
2023-05-07T11:50:04.586Z,1.60
2023-05-07T11:52:31.348Z,1.52
2023-05-07T11:55:00.930Z,1.25
2023-05-07T11:57:28.404Z,1.48
2023-05-07T11:59:55.901Z,1.42
2023-05-07T12:02:23.179Z,1.80
2023-05-07T12:04:50.038Z,1.50
2023-05-07T12:07:16.803Z,1.50
2023-05-07T12:09:44.499Z,1.60
2023-05-07T12:12:11.701Z,1.67
2023-05-07T12:14:40.134Z,1.67
2023-05-07T12:17:08.531Z,1.63
2023-05-07T12:19:36.671Z,1.67
2023-05-07T12:22:08.742Z,1.67
2023-05-07T12:24:47.264Z,1.70
2023-05-07T12:27:15.751Z,1.70
2023-05-07T12:29:49.389Z,1.70
2023-05-07T12:32:21.400Z,1.90
2023-05-07T12:34:51.098Z,2.00
2023-05-07T12:37:24.865Z,1.80
2023-05-07T12:40:07.368Z,1.50
2023-05-07T12:42:38.478Z,1.70
2023-05-07T12:45:17.444Z,1.70
2023-05-07T12:47:48.497Z,1.73
2023-05-07T12:50:16.984Z,1.80
2023-05-07T12:52:48.449Z,2.37
2023-05-07T12:55:17.164Z,2.00
2023-05-07T12:57:48.462Z,2.20
2023-05-07T13:00:15.814Z,2.10
2023-05-07T13:02:47.481Z,1.80
2023-05-07T13:05:14.614Z,2.20
2023-05-07T13:07:42.049Z,2.37
2023-05-07T13:10:09.411Z,2.10
2023-05-07T13:12:36.190Z,2.00
2023-05-07T13:15:02.912Z,2.10
2023-05-07T13:17:29.593Z,2.17
2023-05-07T13:19:56.306Z,1.60
2023-05-07T13:22:22.991Z,1.97
2023-05-07T13:24:49.660Z,1.73
2023-05-07T13:27:16.460Z,2.70
2023-05-07T13:29:43.080Z,2.50
2023-05-07T13:32:09.769Z,2.70
2023-05-07T13:34:36.682Z,2.37
2023-05-07T13:37:03.399Z,2.47
2023-05-07T13:39:30.345Z,2.80
2023-05-07T13:41:56.977Z,2.50
2023-05-07T13:44:23.664Z,2.30
2023-05-07T13:46:50.310Z,2.97
2023-05-07T13:49:17.056Z,2.70
2023-05-07T13:51:43.722Z,2.47
2023-05-07T13:54:10.420Z,2.67
2023-05-07T13:56:37.158Z,3.07
2023-05-07T13:59:03.846Z,2.93
2023-05-07T14:01:30.670Z,2.83
2023-05-07T14:03:58.874Z,2.90
2023-05-07T14:06:26.389Z,2.93
2023-05-07T14:08:53.017Z,3.00
2023-05-07T14:11:19.844Z,2.83
2023-05-07T14:13:46.602Z,2.90
2023-05-07T14:16:13.309Z,2.80
2023-05-07T14:18:39.958Z,3.07
2023-05-07T14:21:10.682Z,3.10
2023-05-07T14:23:37.437Z,3.13
2023-05-07T14:26:04.234Z,2.93
2023-05-07T14:28:30.930Z,3.37
2023-05-07T14:30:57.953Z,3.03
2023-05-07T14:33:24.689Z,2.73
2023-05-07T14:35:51.536Z,3.00
2023-05-07T14:38:18.428Z,2.27
2023-05-07T14:40:45.505Z,2.77
2023-05-07T14:43:12.137Z,2.53
2023-05-07T14:45:39.238Z,2.60
2023-05-07T14:48:06.142Z,2.50
2023-05-07T14:50:32.945Z,2.10
2023-05-07T14:52:59.848Z,2.07
2023-05-07T14:55:26.582Z,2.37
2023-05-07T14:57:53.226Z,2.00
2023-05-07T15:00:20.252Z,2.00
2023-05-07T15:02:47.236Z,2.03
2023-05-07T15:05:15.574Z,2.03
2023-05-07T15:07:42.259Z,2.10
2023-05-07T15:10:09.527Z,1.97
2023-05-07T15:12:36.371Z,2.20
2023-05-07T15:15:03.701Z,1.90
2023-05-07T15:17:30.477Z,2.60
2023-05-07T15:19:57.329Z,2.07
2023-05-07T15:22:24.088Z,1.90
2023-05-07T15:24:50.775Z,2.13
2023-05-07T15:27:18.138Z,1.80
2023-05-07T15:29:44.782Z,2.30
2023-05-07T15:32:13.911Z,2.40
2023-05-07T15:34:40.748Z,2.70
2023-05-07T15:37:07.387Z,2.70
2023-05-07T15:39:34.000Z,2.40
2023-05-07T15:42:00.699Z,2.20
2023-05-07T15:44:29.473Z,1.93
2023-05-07T15:46:56.206Z,2.30
2023-05-07T15:49:23.116Z,2.50
2023-05-07T15:51:51.742Z,2.80
2023-05-07T15:54:20.984Z,2.60
2023-05-07T15:56:47.984Z,2.70
2023-05-07T15:59:16.404Z,2.40
2023-05-07T16:01:43.480Z,2.30
2023-05-07T16:04:10.737Z,2.20
2023-05-07T16:06:37.403Z,2.30
2023-05-07T16:09:04.054Z,2.30
2023-05-07T16:11:30.737Z,2.00
2023-05-07T16:13:57.364Z,2.40
2023-05-07T16:16:26.617Z,2.00
2023-05-07T16:18:53.311Z,2.10
2023-05-07T16:21:20.060Z,2.30
2023-05-07T16:23:46.891Z,2.17
2023-05-07T16:26:14.534Z,2.33
2023-05-07T16:28:41.231Z,2.33
2023-05-07T16:31:08.696Z,2.37
2023-05-07T16:33:35.913Z,2.20
2023-05-07T16:36:03.468Z,2.47
2023-05-07T16:38:33.037Z,2.47
2023-05-07T16:41:00.019Z,2.20
2023-05-07T16:43:26.744Z,2.60
2023-05-07T16:45:53.588Z,2.10
2023-05-07T16:48:21.232Z,2.30
2023-05-07T16:50:48.026Z,2.07
2023-05-07T16:53:15.019Z,2.60
2023-05-07T16:55:41.755Z,2.53
2023-05-07T16:58:10.210Z,2.30
2023-05-07T17:00:49.151Z,2.37
2023-05-07T17:03:18.281Z,2.50
2023-05-07T17:05:45.181Z,2.10
2023-05-07T17:08:13.444Z,2.40
2023-05-07T17:10:40.351Z,2.50
2023-05-07T17:13:07.114Z,2.67
2023-05-07T17:15:33.778Z,2.53
2023-05-07T17:18:00.623Z,2.57
2023-05-07T17:20:27.401Z,2.60
2023-05-07T17:22:54.188Z,2.43
2023-05-07T17:25:23.144Z,2.70
2023-05-07T17:27:49.775Z,2.47
2023-05-07T17:30:16.493Z,2.90
2023-05-07T17:32:43.142Z,2.80
2023-05-07T17:35:09.905Z,2.73
2023-05-07T17:37:36.587Z,2.73
2023-05-07T17:40:03.553Z,2.40
2023-05-07T17:42:31.859Z,2.60
2023-05-07T17:44:58.508Z,2.30
2023-05-07T17:47:25.265Z,2.57
2023-05-07T17:49:51.940Z,2.60
2023-05-07T17:52:18.602Z,2.33
2023-05-07T17:54:45.318Z,2.43
2023-05-07T17:57:11.983Z,2.90
2023-05-07T17:59:39.397Z,2.67
2023-05-07T18:02:06.585Z,2.40
2023-05-07T18:04:33.227Z,2.50
2023-05-07T18:06:59.910Z,2.60
2023-05-07T18:09:26.696Z,2.50
2023-05-07T18:11:53.419Z,2.23
2023-05-07T18:14:24.026Z,2.20
2023-05-07T18:16:50.864Z,2.47
2023-05-07T18:19:17.519Z,2.40
2023-05-07T18:21:44.133Z,2.73
2023-05-07T18:24:11.268Z,2.73
2023-05-07T18:26:37.902Z,2.50
2023-05-07T18:29:04.598Z,3.20
2023-05-07T18:31:31.265Z,2.80
2023-05-07T18:33:57.926Z,3.10
2023-05-07T18:36:28.131Z,3.00
2023-05-07T18:38:55.177Z,3.20
2023-05-07T18:41:22.013Z,2.70
2023-05-07T18:43:48.630Z,2.77
2023-05-07T18:46:15.386Z,2.40
2023-05-07T18:48:42.199Z,3.17
2023-05-07T18:51:12.515Z,2.80
2023-05-07T18:53:40.196Z,3.00
2023-05-07T18:56:08.617Z,2.70
2023-05-07T18:58:35.932Z,2.60
2023-05-07T19:01:03.342Z,2.43
2023-05-07T19:03:30.276Z,2.63
2023-05-07T19:05:56.962Z,2.77
2023-05-07T19:08:23.584Z,3.03
2023-05-07T19:10:50.325Z,3.20
2023-05-07T19:13:17.246Z,3.50
2023-05-07T19:15:44.101Z,3.27
2023-05-07T19:18:11.308Z,3.73
2023-05-07T19:20:37.952Z,4.07
2023-05-07T19:23:06.772Z,6.13
2023-05-07T19:25:33.802Z,5.27
2023-05-07T19:28:00.515Z,4.60
2023-05-07T19:30:27.166Z,2.50
2023-05-07T19:32:53.937Z,2.50
2023-05-07T19:35:20.636Z,2.70
2023-05-07T19:37:47.453Z,2.30
2023-05-07T19:40:14.776Z,2.50
2023-05-07T19:42:41.457Z,3.10
2023-05-07T19:45:08.636Z,2.97
2023-05-07T19:47:35.420Z,2.20
2023-05-07T19:50:02.217Z,2.10
2023-05-07T19:52:28.853Z,1.90
2023-05-07T19:54:55.968Z,2.00
2023-05-07T19:57:22.743Z,1.60
2023-05-07T19:59:49.365Z,1.50
2023-05-07T20:02:16.534Z,1.50
2023-05-07T20:04:43.330Z,1.77
2023-05-07T20:07:09.985Z,1.60
2023-05-07T20:09:36.648Z,1.47
2023-05-07T20:12:03.456Z,1.53
2023-05-07T20:14:30.324Z,1.80
2023-05-07T20:16:56.971Z,1.80
2023-05-07T20:19:23.702Z,1.40
2023-05-07T20:21:50.438Z,1.67
2023-05-07T20:24:19.168Z,1.70
2023-05-07T20:26:46.585Z,1.70
2023-05-07T20:29:13.335Z,1.70
2023-05-07T20:31:43.428Z,1.53
2023-05-07T20:34:10.746Z,1.60
2023-05-07T20:36:37.752Z,1.70
2023-05-07T20:39:04.456Z,1.50
2023-05-07T20:41:31.240Z,1.40
2023-05-07T20:43:57.928Z,1.70
2023-05-07T20:46:25.543Z,1.80
2023-05-07T20:48:52.541Z,1.77
2023-05-07T20:51:19.236Z,1.67
2023-05-07T20:53:47.702Z,1.90
2023-05-07T20:56:15.322Z,1.63
2023-05-07T20:58:42.179Z,1.70
2023-05-07T21:01:09.050Z,1.70
2023-05-07T21:03:35.784Z,1.70
2023-05-07T21:06:03.038Z,1.57
2023-05-07T21:08:30.434Z,1.83
2023-05-07T21:10:57.085Z,1.57
2023-05-07T21:13:23.898Z,1.80
2023-05-07T21:15:50.973Z,1.80
2023-05-07T21:18:18.494Z,1.50
2023-05-07T21:20:45.327Z,1.83
2023-05-07T21:23:11.976Z,1.83
2023-05-07T21:25:39.136Z,2.00
2023-05-07T21:28:09.288Z,1.90
2023-05-07T21:30:36.978Z,1.40
2023-05-07T21:33:06.305Z,1.80
2023-05-07T21:35:36.252Z,1.70
2023-05-07T21:38:03.191Z,1.30
2023-05-07T21:40:29.957Z,1.70
2023-05-07T21:42:56.651Z,1.70
2023-05-07T21:45:23.426Z,1.50
2023-05-07T21:47:50.125Z,1.60
2023-05-07T21:50:17.067Z,1.50
2023-05-07T21:52:43.840Z,1.70
2023-05-07T21:55:10.842Z,1.70
2023-05-07T21:57:40.734Z,1.43
2023-05-07T22:00:09.237Z,1.70
2023-05-07T22:02:36.847Z,1.60
2023-05-07T22:05:03.849Z,1.37
2023-05-07T22:07:31.675Z,1.90
2023-05-07T22:09:58.326Z,1.50
2023-05-07T22:12:25.012Z,1.70
2023-05-07T22:14:51.688Z,2.00
2023-05-07T22:17:18.360Z,2.10
2023-05-07T22:19:45.029Z,1.90
2023-05-07T22:22:11.853Z,1.70
2023-05-07T22:24:38.598Z,2.07
2023-05-07T22:27:05.213Z,2.80
2023-05-07T22:29:31.852Z,2.13
2023-05-07T22:31:58.658Z,2.27
2023-05-07T22:34:25.852Z,1.80
2023-05-07T22:36:52.511Z,2.00
2023-05-07T22:39:19.125Z,1.83
2023-05-07T22:41:46.580Z,1.90
2023-05-07T22:44:14.334Z,2.20
2023-05-07T22:46:41.127Z,1.90
2023-05-07T22:49:10.632Z,1.60
2023-05-07T22:51:37.655Z,1.80
2023-05-07T22:54:04.402Z,1.90
2023-05-07T22:56:31.000Z,2.00
2023-05-07T22:58:57.661Z,1.70
2023-05-07T23:01:24.400Z,2.00
2023-05-07T23:03:51.242Z,1.90
2023-05-07T23:06:17.898Z,1.90
2023-05-07T23:08:44.596Z,1.43
2023-05-07T23:11:11.273Z,1.90
2023-05-07T23:13:37.909Z,1.70
2023-05-07T23:16:04.818Z,1.80
2023-05-07T23:18:32.512Z,1.83
2023-05-07T23:20:59.238Z,1.90
2023-05-07T23:23:26.302Z,1.53
2023-05-07T23:25:53.116Z,1.80
2023-05-07T23:28:19.799Z,1.43
2023-05-07T23:30:46.793Z,1.53
2023-05-07T23:33:13.473Z,1.50
2023-05-07T23:35:40.403Z,1.60
2023-05-07T23:38:07.167Z,1.73
2023-05-07T23:40:33.921Z,1.67
2023-05-07T23:43:00.604Z,1.70
2023-05-07T23:45:27.311Z,1.70
2023-05-07T23:47:53.988Z,2.10
2023-05-07T23:50:20.685Z,1.80
2023-05-07T23:52:47.304Z,1.83
2023-05-07T23:55:16.445Z,1.83
2023-05-07T23:57:43.068Z,2.10
